sensor_id;sensor_type;location;lat;lon;timestamp;P1;durP1;ratioP1;P2;durP2;ratioP2
11854;SDS011;5987;53.140;8.904;2022-11-21T00:03:48;27.13;;;18.17;;
11854;SDS011;5987;53.140;8.904;2022-11-21T00:07:27;26.87;;;18.40;;
11854;SDS011;5987;53.140;8.904;2022-11-21T00:11:10;25.77;;;17.73;;
11854;SDS011;5987;53.140;8.904;2022-11-21T00:14:52;25.73;;;16.70;;
11854;SDS011;5987;53.140;8.904;2022-11-21T00:18:37;25.90;;;17.10;;
11854;SDS011;5987;53.140;8.904;2022-11-21T00:26:08;24.90;;;16.73;;
11854;SDS011;5987;53.140;8.904;2022-11-21T00:29:59;22.80;;;16.07;;
11854;SDS011;5987;53.140;8.904;2022-11-21T00:33:43;26.40;;;16.67;;
11854;SDS011;5987;53.140;8.904;2022-11-21T00:37:16;22.03;;;16.73;;
11854;SDS011;5987;53.140;8.904;2022-11-21T00:41:10;21.30;;;15.87;;
11854;SDS011;5987;53.140;8.904;2022-11-21T00:45:04;25.57;;;17.83;;
11854;SDS011;5987;53.140;8.904;2022-11-21T00:48:51;25.43;;;17.20;;
11854;SDS011;5987;53.140;8.904;2022-11-21T00:52:35;25.77;;;16.90;;
11854;SDS011;5987;53.140;8.904;2022-11-21T00:56:14;22.93;;;15.70;;
11854;SDS011;5987;53.140;8.904;2022-11-21T00:59:58;22.93;;;15.53;;
11854;SDS011;5987;53.140;8.904;2022-11-21T01:03:50;24.67;;;17.63;;
11854;SDS011;5987;53.140;8.904;2022-11-21T01:11:51;26.97;;;17.60;;
11854;SDS011;5987;53.140;8.904;2022-11-21T01:16:03;24.70;;;17.17;;
11854;SDS011;5987;53.140;8.904;2022-11-21T01:19:36;24.80;;;16.87;;
11854;SDS011;5987;53.140;8.904;2022-11-21T01:23:23;25.87;;;17.07;;
11854;SDS011;5987;53.140;8.904;2022-11-21T01:27:11;22.70;;;15.53;;
11854;SDS011;5987;53.140;8.904;2022-11-21T01:30:42;24.63;;;16.93;;
11854;SDS011;5987;53.140;8.904;2022-11-21T01:34:57;24.40;;;15.67;;
11854;SDS011;5987;53.140;8.904;2022-11-21T01:38:25;25.87;;;17.83;;
11854;SDS011;5987;53.140;8.904;2022-11-21T01:42:26;25.20;;;15.70;;
11854;SDS011;5987;53.140;8.904;2022-11-21T01:46:19;24.33;;;16.27;;
11854;SDS011;5987;53.140;8.904;2022-11-21T01:49:59;25.10;;;16.67;;
11854;SDS011;5987;53.140;8.904;2022-11-21T01:53:38;25.13;;;16.53;;
11854;SDS011;5987;53.140;8.904;2022-11-21T01:57:13;22.63;;;15.97;;
11854;SDS011;5987;53.140;8.904;2022-11-21T02:01:17;22.87;;;16.03;;
11854;SDS011;5987;53.140;8.904;2022-11-21T02:04:49;24.23;;;16.97;;
11854;SDS011;5987;53.140;8.904;2022-11-21T02:08:21;26.37;;;17.60;;
11854;SDS011;5987;53.140;8.904;2022-11-21T02:12:46;28.63;;;17.93;;
11854;SDS011;5987;53.140;8.904;2022-11-21T02:16:24;25.60;;;16.80;;
11854;SDS011;5987;53.140;8.904;2022-11-21T02:23:58;25.87;;;17.83;;
11854;SDS011;5987;53.140;8.904;2022-11-21T02:27:57;22.87;;;16.40;;
11854;SDS011;5987;53.140;8.904;2022-11-21T02:31:51;26.90;;;16.93;;
11854;SDS011;5987;53.140;8.904;2022-11-21T02:35:26;23.37;;;15.67;;
11854;SDS011;5987;53.140;8.904;2022-11-21T02:44:21;23.23;;;15.80;;
11854;SDS011;5987;53.140;8.904;2022-11-21T02:48:08;22.90;;;15.70;;
11854;SDS011;5987;53.140;8.904;2022-11-21T02:55:50;24.50;;;14.67;;
11854;SDS011;5987;53.140;8.904;2022-11-21T02:59:39;21.23;;;14.47;;
11854;SDS011;5987;53.140;8.904;2022-11-21T03:03:24;21.53;;;14.90;;
11854;SDS011;5987;53.140;8.904;2022-11-21T03:07:38;22.70;;;15.10;;
11854;SDS011;5987;53.140;8.904;2022-11-21T03:11:30;22.50;;;13.97;;
11854;SDS011;5987;53.140;8.904;2022-11-21T03:19:36;22.00;;;15.23;;
11854;SDS011;5987;53.140;8.904;2022-11-21T03:23:23;23.40;;;15.03;;
11854;SDS011;5987;53.140;8.904;2022-11-21T03:27:13;24.43;;;15.17;;
11854;SDS011;5987;53.140;8.904;2022-11-21T03:30:41;20.97;;;13.87;;
11854;SDS011;5987;53.140;8.904;2022-11-21T03:34:48;24.00;;;14.77;;
11854;SDS011;5987;53.140;8.904;2022-11-21T03:38:27;17.57;;;14.00;;
11854;SDS011;5987;53.140;8.904;2022-11-21T03:46:25;22.67;;;14.80;;
11854;SDS011;5987;53.140;8.904;2022-11-21T03:49:59;22.17;;;14.30;;
11854;SDS011;5987;53.140;8.904;2022-11-21T03:53:54;17.93;;;13.97;;
11854;SDS011;5987;53.140;8.904;2022-11-21T03:57:32;23.17;;;15.40;;
11854;SDS011;5987;53.140;8.904;2022-11-21T04:01:10;19.03;;;13.70;;
11854;SDS011;5987;53.140;8.904;2022-11-21T04:05:14;16.87;;;12.87;;
11854;SDS011;5987;53.140;8.904;2022-11-21T04:09:05;19.57;;;13.13;;
11854;SDS011;5987;53.140;8.904;2022-11-21T04:12:44;17.03;;;13.20;;
11854;SDS011;5987;53.140;8.904;2022-11-21T04:16:17;17.93;;;13.27;;
11854;SDS011;5987;53.140;8.904;2022-11-21T04:20:03;17.63;;;12.97;;
11854;SDS011;5987;53.140;8.904;2022-11-21T04:24:02;17.97;;;12.63;;
11854;SDS011;5987;53.140;8.904;2022-11-21T04:28:31;21.50;;;13.23;;
11854;SDS011;5987;53.140;8.904;2022-11-21T04:32:51;16.47;;;12.03;;
11854;SDS011;5987;53.140;8.904;2022-11-21T04:36:56;17.30;;;11.40;;
11854;SDS011;5987;53.140;8.904;2022-11-21T04:40:53;18.37;;;12.37;;
11854;SDS011;5987;53.140;8.904;2022-11-21T04:44:46;17.67;;;12.63;;
11854;SDS011;5987;53.140;8.904;2022-11-21T04:48:45;18.40;;;13.43;;
11854;SDS011;5987;53.140;8.904;2022-11-21T04:52:47;18.87;;;13.00;;
11854;SDS011;5987;53.140;8.904;2022-11-21T04:56:50;19.63;;;13.37;;
11854;SDS011;5987;53.140;8.904;2022-11-21T05:00:42;19.53;;;13.20;;
11854;SDS011;5987;53.140;8.904;2022-11-21T05:08:40;21.97;;;14.13;;
11854;SDS011;5987;53.140;8.904;2022-11-21T05:12:37;19.67;;;13.63;;
11854;SDS011;5987;53.140;8.904;2022-11-21T05:16:37;21.57;;;14.30;;
11854;SDS011;5987;53.140;8.904;2022-11-21T05:25:09;20.53;;;14.63;;
11854;SDS011;5987;53.140;8.904;2022-11-21T05:29:10;19.67;;;13.87;;
11854;SDS011;5987;53.140;8.904;2022-11-21T05:32:43;19.30;;;13.97;;
11854;SDS011;5987;53.140;8.904;2022-11-21T05:36:24;20.30;;;14.17;;
11854;SDS011;5987;53.140;8.904;2022-11-21T05:40:06;24.13;;;14.27;;
11854;SDS011;5987;53.140;8.904;2022-11-21T05:43:36;22.07;;;15.13;;
11854;SDS011;5987;53.140;8.904;2022-11-21T05:47:03;22.27;;;16.50;;
11854;SDS011;5987;53.140;8.904;2022-11-21T05:50:38;21.93;;;16.30;;
11854;SDS011;5987;53.140;8.904;2022-11-21T05:54:24;36.30;;;21.03;;
11854;SDS011;5987;53.140;8.904;2022-11-21T05:57:44;23.67;;;17.53;;
11854;SDS011;5987;53.140;8.904;2022-11-21T06:01:28;18.90;;;14.67;;
11854;SDS011;5987;53.140;8.904;2022-11-21T06:05:03;43.17;;;26.30;;
11854;SDS011;5987;53.140;8.904;2022-11-21T06:08:32;37.53;;;26.40;;
11854;SDS011;5987;53.140;8.904;2022-11-21T06:12:01;32.13;;;20.80;;
11854;SDS011;5987;53.140;8.904;2022-11-21T06:15:57;25.90;;;17.77;;
11854;SDS011;5987;53.140;8.904;2022-11-21T06:19:16;23.30;;;15.53;;
11854;SDS011;5987;53.140;8.904;2022-11-21T06:22:41;23.40;;;15.77;;
11854;SDS011;5987;53.140;8.904;2022-11-21T06:26:31;18.83;;;13.43;;
11854;SDS011;5987;53.140;8.904;2022-11-21T06:29:51;24.60;;;16.53;;
11854;SDS011;5987;53.140;8.904;2022-11-21T06:32:55;22.23;;;15.10;;
11854;SDS011;5987;53.140;8.904;2022-11-21T06:36:00;26.17;;;16.43;;
11854;SDS011;5987;53.140;8.904;2022-11-21T06:39:04;27.00;;;15.70;;
11854;SDS011;5987;53.140;8.904;2022-11-21T06:42:08;32.03;;;16.40;;
11854;SDS011;5987;53.140;8.904;2022-11-21T06:45:29;26.80;;;15.47;;
11854;SDS011;5987;53.140;8.904;2022-11-21T06:48:33;29.77;;;16.40;;
11854;SDS011;5987;53.140;8.904;2022-11-21T06:51:38;31.70;;;17.63;;
11854;SDS011;5987;53.140;8.904;2022-11-21T06:54:42;33.97;;;19.30;;
11854;SDS011;5987;53.140;8.904;2022-11-21T06:57:46;28.70;;;16.87;;
11854;SDS011;5987;53.140;8.904;2022-11-21T07:00:51;28.60;;;17.63;;
11854;SDS011;5987;53.140;8.904;2022-11-21T07:03:55;23.57;;;16.00;;
11854;SDS011;5987;53.140;8.904;2022-11-21T07:06:59;24.57;;;15.67;;
11854;SDS011;5987;53.140;8.904;2022-11-21T07:10:03;24.63;;;16.50;;
11854;SDS011;5987;53.140;8.904;2022-11-21T07:13:09;25.43;;;16.37;;
11854;SDS011;5987;53.140;8.904;2022-11-21T07:16:26;27.10;;;16.77;;
11854;SDS011;5987;53.140;8.904;2022-11-21T07:19:32;25.80;;;17.77;;
11854;SDS011;5987;53.140;8.904;2022-11-21T07:22:41;29.03;;;17.80;;
11854;SDS011;5987;53.140;8.904;2022-11-21T07:25:46;27.10;;;16.57;;
11854;SDS011;5987;53.140;8.904;2022-11-21T07:28:49;29.80;;;17.47;;
11854;SDS011;5987;53.140;8.904;2022-11-21T07:31:55;28.07;;;17.77;;
11854;SDS011;5987;53.140;8.904;2022-11-21T07:34:58;27.43;;;17.80;;
11854;SDS011;5987;53.140;8.904;2022-11-21T07:38:03;28.77;;;17.40;;
11854;SDS011;5987;53.140;8.904;2022-11-21T07:41:06;30.47;;;18.13;;
11854;SDS011;5987;53.140;8.904;2022-11-21T07:44:10;22.70;;;16.40;;
11854;SDS011;5987;53.140;8.904;2022-11-21T07:47:15;26.30;;;17.80;;
11854;SDS011;5987;53.140;8.904;2022-11-21T07:50:19;33.23;;;18.60;;
11854;SDS011;5987;53.140;8.904;2022-11-21T07:53:22;29.63;;;17.00;;
11854;SDS011;5987;53.140;8.904;2022-11-21T07:56:26;29.73;;;18.43;;
11854;SDS011;5987;53.140;8.904;2022-11-21T07:59:29;32.13;;;18.43;;
11854;SDS011;5987;53.140;8.904;2022-11-21T08:02:34;29.77;;;18.00;;
11854;SDS011;5987;53.140;8.904;2022-11-21T08:05:38;30.27;;;19.10;;
11854;SDS011;5987;53.140;8.904;2022-11-21T08:08:45;29.97;;;18.90;;
11854;SDS011;5987;53.140;8.904;2022-11-21T08:11:52;27.60;;;17.83;;
11854;SDS011;5987;53.140;8.904;2022-11-21T08:14:56;29.20;;;18.67;;
11854;SDS011;5987;53.140;8.904;2022-11-21T08:18:06;30.57;;;18.47;;
11854;SDS011;5987;53.140;8.904;2022-11-21T08:21:11;30.73;;;20.37;;
11854;SDS011;5987;53.140;8.904;2022-11-21T08:24:20;28.57;;;18.27;;
11854;SDS011;5987;53.140;8.904;2022-11-21T08:27:24;26.87;;;17.90;;
11854;SDS011;5987;53.140;8.904;2022-11-21T08:30:27;28.77;;;18.77;;
11854;SDS011;5987;53.140;8.904;2022-11-21T08:33:33;31.37;;;19.60;;
11854;SDS011;5987;53.140;8.904;2022-11-21T08:36:37;26.83;;;17.80;;
11854;SDS011;5987;53.140;8.904;2022-11-21T08:39:41;29.17;;;18.30;;
11854;SDS011;5987;53.140;8.904;2022-11-21T08:42:44;29.67;;;19.00;;
11854;SDS011;5987;53.140;8.904;2022-11-21T08:45:48;30.77;;;19.37;;
11854;SDS011;5987;53.140;8.904;2022-11-21T08:48:53;29.07;;;19.13;;
11854;SDS011;5987;53.140;8.904;2022-11-21T08:51:57;31.50;;;19.63;;
11854;SDS011;5987;53.140;8.904;2022-11-21T08:55:01;30.23;;;18.27;;
11854;SDS011;5987;53.140;8.904;2022-11-21T08:58:04;29.40;;;18.87;;
11854;SDS011;5987;53.140;8.904;2022-11-21T09:01:08;34.50;;;20.13;;
11854;SDS011;5987;53.140;8.904;2022-11-21T09:04:13;31.97;;;20.00;;
11854;SDS011;5987;53.140;8.904;2022-11-21T09:07:17;33.00;;;21.17;;
11854;SDS011;5987;53.140;8.904;2022-11-21T09:10:20;32.57;;;19.53;;
11854;SDS011;5987;53.140;8.904;2022-11-21T09:13:24;28.37;;;18.57;;
11854;SDS011;5987;53.140;8.904;2022-11-21T09:16:28;31.73;;;20.10;;
11854;SDS011;5987;53.140;8.904;2022-11-21T09:19:50;31.93;;;19.10;;
11854;SDS011;5987;53.140;8.904;2022-11-21T09:22:54;32.67;;;19.70;;
11854;SDS011;5987;53.140;8.904;2022-11-21T09:25:58;34.10;;;19.47;;
11854;SDS011;5987;53.140;8.904;2022-11-21T09:29:02;31.03;;;18.83;;
11854;SDS011;5987;53.140;8.904;2022-11-21T09:32:06;35.83;;;20.57;;
11854;SDS011;5987;53.140;8.904;2022-11-21T09:35:11;34.13;;;19.67;;
11854;SDS011;5987;53.140;8.904;2022-11-21T09:38:15;29.77;;;19.63;;
11854;SDS011;5987;53.140;8.904;2022-11-21T09:41:26;30.97;;;18.73;;
11854;SDS011;5987;53.140;8.904;2022-11-21T09:44:58;30.83;;;19.53;;
11854;SDS011;5987;53.140;8.904;2022-11-21T09:48:13;28.73;;;18.97;;
11854;SDS011;5987;53.140;8.904;2022-11-21T09:51:28;32.80;;;19.57;;
11854;SDS011;5987;53.140;8.904;2022-11-21T09:54:33;34.87;;;18.23;;
11854;SDS011;5987;53.140;8.904;2022-11-21T09:57:45;25.43;;;17.20;;
11854;SDS011;5987;53.140;8.904;2022-11-21T10:00:51;30.67;;;17.73;;
11854;SDS011;5987;53.140;8.904;2022-11-21T10:03:56;27.93;;;18.93;;
11854;SDS011;5987;53.140;8.904;2022-11-21T10:07:05;28.60;;;17.40;;
11854;SDS011;5987;53.140;8.904;2022-11-21T10:10:21;29.77;;;17.33;;
11854;SDS011;5987;53.140;8.904;2022-11-21T10:13:45;28.73;;;16.70;;
11854;SDS011;5987;53.140;8.904;2022-11-21T10:17:10;24.67;;;15.83;;
11854;SDS011;5987;53.140;8.904;2022-11-21T10:20:30;26.43;;;15.87;;
11854;SDS011;5987;53.140;8.904;2022-11-21T10:23:57;27.43;;;16.73;;
11854;SDS011;5987;53.140;8.904;2022-11-21T10:27:22;24.47;;;16.00;;
11854;SDS011;5987;53.140;8.904;2022-11-21T10:30:38;26.27;;;16.63;;
11854;SDS011;5987;53.140;8.904;2022-11-21T10:33:45;24.67;;;15.90;;
11854;SDS011;5987;53.140;8.904;2022-11-21T10:36:54;24.00;;;15.83;;
11854;SDS011;5987;53.140;8.904;2022-11-21T10:40:17;25.93;;;16.20;;
11854;SDS011;5987;53.140;8.904;2022-11-21T10:43:38;25.67;;;16.30;;
11854;SDS011;5987;53.140;8.904;2022-11-21T10:47:12;26.10;;;16.67;;
11854;SDS011;5987;53.140;8.904;2022-11-21T10:50:30;28.90;;;16.50;;
11854;SDS011;5987;53.140;8.904;2022-11-21T10:53:46;29.13;;;16.73;;
11854;SDS011;5987;53.140;8.904;2022-11-21T10:57:24;27.93;;;17.33;;
11854;SDS011;5987;53.140;8.904;2022-11-21T11:00:31;25.50;;;15.87;;
11854;SDS011;5987;53.140;8.904;2022-11-21T11:03:35;25.33;;;16.67;;
11854;SDS011;5987;53.140;8.904;2022-11-21T11:06:39;23.77;;;15.53;;
11854;SDS011;5987;53.140;8.904;2022-11-21T11:09:46;26.67;;;16.97;;
11854;SDS011;5987;53.140;8.904;2022-11-21T11:12:53;24.10;;;17.13;;
11854;SDS011;5987;53.140;8.904;2022-11-21T11:16:35;25.60;;;16.63;;
11854;SDS011;5987;53.140;8.904;2022-11-21T11:19:58;24.80;;;16.03;;
11854;SDS011;5987;53.140;8.904;2022-11-21T11:23:14;28.87;;;18.03;;
11854;SDS011;5987;53.140;8.904;2022-11-21T11:26:27;28.37;;;16.63;;
11854;SDS011;5987;53.140;8.904;2022-11-21T11:29:33;23.33;;;15.23;;
11854;SDS011;5987;53.140;8.904;2022-11-21T11:32:53;27.77;;;16.53;;
11854;SDS011;5987;53.140;8.904;2022-11-21T11:36:02;28.87;;;16.57;;
11854;SDS011;5987;53.140;8.904;2022-11-21T11:39:16;25.37;;;16.70;;
11854;SDS011;5987;53.140;8.904;2022-11-21T11:42:34;24.97;;;15.43;;
11854;SDS011;5987;53.140;8.904;2022-11-21T11:46:26;25.57;;;16.40;;
11854;SDS011;5987;53.140;8.904;2022-11-21T11:50:02;25.43;;;15.70;;
11854;SDS011;5987;53.140;8.904;2022-11-21T11:53:14;23.93;;;15.60;;
11854;SDS011;5987;53.140;8.904;2022-11-21T11:56:23;27.70;;;17.30;;
11854;SDS011;5987;53.140;8.904;2022-11-21T11:59:31;25.13;;;16.47;;
11854;SDS011;5987;53.140;8.904;2022-11-21T12:02:46;28.17;;;16.03;;
11854;SDS011;5987;53.140;8.904;2022-11-21T12:06:00;24.37;;;14.80;;
11854;SDS011;5987;53.140;8.904;2022-11-21T12:09:13;24.10;;;14.83;;
11854;SDS011;5987;53.140;8.904;2022-11-21T12:12:27;23.37;;;14.43;;
11854;SDS011;5987;53.140;8.904;2022-11-21T12:15:42;28.30;;;15.30;;
11854;SDS011;5987;53.140;8.904;2022-11-21T12:18:57;23.07;;;14.23;;
11854;SDS011;5987;53.140;8.904;2022-11-21T12:22:10;24.03;;;14.23;;
11854;SDS011;5987;53.140;8.904;2022-11-21T12:25:14;21.83;;;14.43;;
11854;SDS011;5987;53.140;8.904;2022-11-21T12:28:22;24.53;;;14.20;;
11854;SDS011;5987;53.140;8.904;2022-11-21T12:31:39;21.33;;;13.57;;
11854;SDS011;5987;53.140;8.904;2022-11-21T12:35:05;21.93;;;13.27;;
11854;SDS011;5987;53.140;8.904;2022-11-21T12:38:35;17.70;;;12.33;;
11854;SDS011;5987;53.140;8.904;2022-11-21T12:42:10;20.03;;;13.60;;
11854;SDS011;5987;53.140;8.904;2022-11-21T12:45:48;20.63;;;13.27;;
11854;SDS011;5987;53.140;8.904;2022-11-21T12:49:00;23.10;;;12.87;;
11854;SDS011;5987;53.140;8.904;2022-11-21T12:52:35;19.10;;;13.33;;
11854;SDS011;5987;53.140;8.904;2022-11-21T12:56:06;23.57;;;14.53;;
11854;SDS011;5987;53.140;8.904;2022-11-21T12:59:26;27.57;;;16.40;;
11854;SDS011;5987;53.140;8.904;2022-11-21T13:02:45;27.77;;;15.13;;
11854;SDS011;5987;53.140;8.904;2022-11-21T13:06:18;18.40;;;12.70;;
11854;SDS011;5987;53.140;8.904;2022-11-21T13:09:29;21.30;;;14.23;;
11854;SDS011;5987;53.140;8.904;2022-11-21T13:12:42;30.83;;;18.40;;
11854;SDS011;5987;53.140;8.904;2022-11-21T13:15:53;28.43;;;17.83;;
11854;SDS011;5987;53.140;8.904;2022-11-21T13:19:15;24.23;;;16.40;;
11854;SDS011;5987;53.140;8.904;2022-11-21T13:25:56;29.07;;;16.57;;
11854;SDS011;5987;53.140;8.904;2022-11-21T13:29:06;18.60;;;13.93;;
11854;SDS011;5987;53.140;8.904;2022-11-21T13:50:04;30.10;;;18.60;;
11854;SDS011;5987;53.140;8.904;2022-11-21T13:53:37;23.27;;;13.90;;
11854;SDS011;5987;53.140;8.904;2022-11-21T14:01:01;32.53;;;17.97;;
11854;SDS011;5987;53.140;8.904;2022-11-21T14:08:26;25.10;;;16.90;;
11854;SDS011;5987;53.140;8.904;2022-11-21T14:11:32;20.20;;;13.60;;
11854;SDS011;5987;53.140;8.904;2022-11-21T14:14:50;21.67;;;13.67;;
11854;SDS011;5987;53.140;8.904;2022-11-21T14:18:13;19.33;;;12.23;;
11854;SDS011;5987;53.140;8.904;2022-11-21T14:21:25;22.70;;;14.43;;
11854;SDS011;5987;53.140;8.904;2022-11-21T14:24:31;21.93;;;13.33;;
11854;SDS011;5987;53.140;8.904;2022-11-21T14:27:36;18.90;;;13.40;;
11854;SDS011;5987;53.140;8.904;2022-11-21T14:30:46;20.67;;;13.03;;
11854;SDS011;5987;53.140;8.904;2022-11-21T14:33:54;24.30;;;12.70;;
11854;SDS011;5987;53.140;8.904;2022-11-21T14:37:00;23.63;;;14.17;;
11854;SDS011;5987;53.140;8.904;2022-11-21T14:40:10;19.53;;;13.53;;
11854;SDS011;5987;53.140;8.904;2022-11-21T14:43:27;22.13;;;13.10;;
11854;SDS011;5987;53.140;8.904;2022-11-21T14:46:35;21.60;;;13.03;;
11854;SDS011;5987;53.140;8.904;2022-11-21T14:49:48;20.03;;;12.93;;
11854;SDS011;5987;53.140;8.904;2022-11-21T14:52:53;22.97;;;13.90;;
11854;SDS011;5987;53.140;8.904;2022-11-21T14:56:01;20.77;;;13.33;;
11854;SDS011;5987;53.140;8.904;2022-11-21T14:59:05;21.77;;;13.53;;
11854;SDS011;5987;53.140;8.904;2022-11-21T15:02:24;25.70;;;13.73;;
11854;SDS011;5987;53.140;8.904;2022-11-21T15:05:32;21.37;;;14.40;;
11854;SDS011;5987;53.140;8.904;2022-11-21T15:08:57;25.20;;;14.87;;
11854;SDS011;5987;53.140;8.904;2022-11-21T15:12:24;21.93;;;12.93;;
11854;SDS011;5987;53.140;8.904;2022-11-21T15:15:42;25.83;;;15.20;;
11854;SDS011;5987;53.140;8.904;2022-11-21T15:18:50;29.00;;;14.97;;
11854;SDS011;5987;53.140;8.904;2022-11-21T15:21:56;28.03;;;16.10;;
11854;SDS011;5987;53.140;8.904;2022-11-21T15:25:07;23.37;;;14.37;;
11854;SDS011;5987;53.140;8.904;2022-11-21T15:28:18;26.23;;;15.57;;
11854;SDS011;5987;53.140;8.904;2022-11-21T15:31:22;26.90;;;16.23;;
11854;SDS011;5987;53.140;8.904;2022-11-21T15:34:26;25.83;;;15.57;;
11854;SDS011;5987;53.140;8.904;2022-11-21T15:37:46;27.97;;;17.03;;
11854;SDS011;5987;53.140;8.904;2022-11-21T15:40:55;24.00;;;15.77;;
11854;SDS011;5987;53.140;8.904;2022-11-21T15:44:25;24.33;;;16.33;;
11854;SDS011;5987;53.140;8.904;2022-11-21T15:47:29;30.80;;;19.67;;
11854;SDS011;5987;53.140;8.904;2022-11-21T15:50:33;22.77;;;15.83;;
11854;SDS011;5987;53.140;8.904;2022-11-21T15:53:40;24.03;;;15.73;;
11854;SDS011;5987;53.140;8.904;2022-11-21T15:56:44;28.87;;;17.30;;
11854;SDS011;5987;53.140;8.904;2022-11-21T15:59:48;24.83;;;15.43;;
11854;SDS011;5987;53.140;8.904;2022-11-21T16:02:53;27.23;;;17.37;;
11854;SDS011;5987;53.140;8.904;2022-11-21T16:05:57;27.30;;;16.90;;
11854;SDS011;5987;53.140;8.904;2022-11-21T16:09:02;25.97;;;16.30;;
11854;SDS011;5987;53.140;8.904;2022-11-21T16:12:07;28.17;;;17.30;;
11854;SDS011;5987;53.140;8.904;2022-11-21T16:15:11;25.80;;;16.07;;
11854;SDS011;5987;53.140;8.904;2022-11-21T16:18:14;27.23;;;17.03;;
11854;SDS011;5987;53.140;8.904;2022-11-21T16:21:18;28.17;;;17.50;;
11854;SDS011;5987;53.140;8.904;2022-11-21T16:24:23;26.30;;;17.13;;
11854;SDS011;5987;53.140;8.904;2022-11-21T16:27:27;28.23;;;17.37;;
11854;SDS011;5987;53.140;8.904;2022-11-21T16:30:30;31.70;;;18.50;;
11854;SDS011;5987;53.140;8.904;2022-11-21T16:33:37;30.23;;;19.27;;
11854;SDS011;5987;53.140;8.904;2022-11-21T16:36:41;31.57;;;18.57;;
11854;SDS011;5987;53.140;8.904;2022-11-21T16:39:46;28.87;;;18.50;;
11854;SDS011;5987;53.140;8.904;2022-11-21T16:42:53;32.37;;;19.10;;
11854;SDS011;5987;53.140;8.904;2022-11-21T16:46:11;36.30;;;22.00;;
11854;SDS011;5987;53.140;8.904;2022-11-21T16:49:14;29.27;;;18.70;;
11854;SDS011;5987;53.140;8.904;2022-11-21T16:52:19;31.07;;;18.67;;
11854;SDS011;5987;53.140;8.904;2022-11-21T16:55:24;35.93;;;21.97;;
11854;SDS011;5987;53.140;8.904;2022-11-21T16:58:27;34.67;;;20.50;;
11854;SDS011;5987;53.140;8.904;2022-11-21T17:01:31;47.80;;;30.77;;
11854;SDS011;5987;53.140;8.904;2022-11-21T17:04:35;42.57;;;24.33;;
11854;SDS011;5987;53.140;8.904;2022-11-21T17:07:39;35.07;;;20.83;;
11854;SDS011;5987;53.140;8.904;2022-11-21T17:10:44;31.03;;;19.80;;
11854;SDS011;5987;53.140;8.904;2022-11-21T17:13:48;29.97;;;20.43;;
11854;SDS011;5987;53.140;8.904;2022-11-21T17:16:53;31.37;;;20.40;;
11854;SDS011;5987;53.140;8.904;2022-11-21T17:19:56;30.23;;;19.13;;
11854;SDS011;5987;53.140;8.904;2022-11-21T17:23:00;31.50;;;19.47;;
11854;SDS011;5987;53.140;8.904;2022-11-21T17:26:06;32.27;;;19.63;;
11854;SDS011;5987;53.140;8.904;2022-11-21T17:29:12;39.37;;;21.50;;
11854;SDS011;5987;53.140;8.904;2022-11-21T17:32:15;38.37;;;21.43;;
11854;SDS011;5987;53.140;8.904;2022-11-21T17:35:19;34.17;;;21.27;;
11854;SDS011;5987;53.140;8.904;2022-11-21T17:38:23;33.13;;;19.40;;
11854;SDS011;5987;53.140;8.904;2022-11-21T17:41:28;35.90;;;20.10;;
11854;SDS011;5987;53.140;8.904;2022-11-21T17:44:31;34.27;;;21.07;;
11854;SDS011;5987;53.140;8.904;2022-11-21T17:47:35;43.23;;;24.27;;
11854;SDS011;5987;53.140;8.904;2022-11-21T17:50:39;38.70;;;23.80;;
11854;SDS011;5987;53.140;8.904;2022-11-21T17:53:43;41.83;;;24.33;;
11854;SDS011;5987;53.140;8.904;2022-11-21T17:56:51;35.93;;;21.70;;
11854;SDS011;5987;53.140;8.904;2022-11-21T17:59:57;35.70;;;20.27;;
11854;SDS011;5987;53.140;8.904;2022-11-21T18:03:01;34.10;;;20.70;;
11854;SDS011;5987;53.140;8.904;2022-11-21T18:06:05;38.43;;;21.43;;
11854;SDS011;5987;53.140;8.904;2022-11-21T18:09:12;42.23;;;24.97;;
11854;SDS011;5987;53.140;8.904;2022-11-21T18:12:18;38.80;;;22.67;;
11854;SDS011;5987;53.140;8.904;2022-11-21T18:15:27;42.13;;;24.77;;
11854;SDS011;5987;53.140;8.904;2022-11-21T18:18:30;39.80;;;23.43;;
11854;SDS011;5987;53.140;8.904;2022-11-21T18:21:36;38.60;;;22.73;;
11854;SDS011;5987;53.140;8.904;2022-11-21T18:24:40;36.63;;;21.53;;
11854;SDS011;5987;53.140;8.904;2022-11-21T18:27:45;34.67;;;20.70;;
11854;SDS011;5987;53.140;8.904;2022-11-21T18:31:01;38.13;;;24.37;;
11854;SDS011;5987;53.140;8.904;2022-11-21T18:34:08;35.97;;;20.97;;
11854;SDS011;5987;53.140;8.904;2022-11-21T18:37:12;32.67;;;18.87;;
11854;SDS011;5987;53.140;8.904;2022-11-21T18:40:16;34.03;;;21.27;;
11854;SDS011;5987;53.140;8.904;2022-11-21T18:43:21;40.43;;;24.20;;
11854;SDS011;5987;53.140;8.904;2022-11-21T18:46:25;38.57;;;23.93;;
11854;SDS011;5987;53.140;8.904;2022-11-21T18:49:30;34.17;;;21.30;;
11854;SDS011;5987;53.140;8.904;2022-11-21T18:52:34;39.80;;;23.57;;
11854;SDS011;5987;53.140;8.904;2022-11-21T18:55:46;38.00;;;22.63;;
11854;SDS011;5987;53.140;8.904;2022-11-21T18:58:51;34.20;;;21.50;;
11854;SDS011;5987;53.140;8.904;2022-11-21T19:01:59;42.33;;;26.27;;
11854;SDS011;5987;53.140;8.904;2022-11-21T19:05:03;34.07;;;22.10;;
11854;SDS011;5987;53.140;8.904;2022-11-21T19:08:09;36.10;;;20.70;;
11854;SDS011;5987;53.140;8.904;2022-11-21T19:11:13;44.30;;;26.57;;
11854;SDS011;5987;53.140;8.904;2022-11-21T19:14:19;35.20;;;21.53;;
11854;SDS011;5987;53.140;8.904;2022-11-21T19:17:22;43.67;;;25.30;;
11854;SDS011;5987;53.140;8.904;2022-11-21T19:20:26;41.83;;;23.23;;
11854;SDS011;5987;53.140;8.904;2022-11-21T19:23:30;37.80;;;21.50;;
11854;SDS011;5987;53.140;8.904;2022-11-21T19:26:34;40.23;;;22.40;;
11854;SDS011;5987;53.140;8.904;2022-11-21T19:29:39;58.33;;;31.30;;
11854;SDS011;5987;53.140;8.904;2022-11-21T19:32:43;55.10;;;28.40;;
11854;SDS011;5987;53.140;8.904;2022-11-21T19:35:46;38.07;;;20.93;;
11854;SDS011;5987;53.140;8.904;2022-11-21T19:38:50;32.33;;;18.10;;
11854;SDS011;5987;53.140;8.904;2022-11-21T19:41:54;45.60;;;22.50;;
11854;SDS011;5987;53.140;8.904;2022-11-21T19:44:59;67.97;;;32.13;;
11854;SDS011;5987;53.140;8.904;2022-11-21T19:48:03;65.47;;;32.53;;
11854;SDS011;5987;53.140;8.904;2022-11-21T19:51:07;59.90;;;29.07;;
11854;SDS011;5987;53.140;8.904;2022-11-21T19:54:11;66.20;;;33.80;;
11854;SDS011;5987;53.140;8.904;2022-11-21T19:57:17;64.40;;;35.30;;
11854;SDS011;5987;53.140;8.904;2022-11-21T20:00:22;39.70;;;24.07;;
11854;SDS011;5987;53.140;8.904;2022-11-21T20:03:26;35.00;;;20.10;;
11854;SDS011;5987;53.140;8.904;2022-11-21T20:06:31;36.63;;;21.87;;
11854;SDS011;5987;53.140;8.904;2022-11-21T20:09:37;31.10;;;17.47;;
11854;SDS011;5987;53.140;8.904;2022-11-21T20:12:41;36.97;;;20.87;;
11854;SDS011;5987;53.140;8.904;2022-11-21T20:15:46;33.37;;;20.53;;
11854;SDS011;5987;53.140;8.904;2022-11-21T20:18:50;34.50;;;20.20;;
11854;SDS011;5987;53.140;8.904;2022-11-21T20:21:55;34.57;;;19.53;;
11854;SDS011;5987;53.140;8.904;2022-11-21T20:24:59;34.40;;;18.77;;
11854;SDS011;5987;53.140;8.904;2022-11-21T20:28:03;32.03;;;19.13;;
11854;SDS011;5987;53.140;8.904;2022-11-21T20:31:14;38.30;;;21.60;;
11854;SDS011;5987;53.140;8.904;2022-11-21T20:34:20;38.50;;;20.70;;
11854;SDS011;5987;53.140;8.904;2022-11-21T20:37:24;36.23;;;20.63;;
11854;SDS011;5987;53.140;8.904;2022-11-21T20:40:28;39.53;;;21.90;;
11854;SDS011;5987;53.140;8.904;2022-11-21T20:43:31;37.83;;;20.53;;
11854;SDS011;5987;53.140;8.904;2022-11-21T20:46:57;40.03;;;21.27;;
11854;SDS011;5987;53.140;8.904;2022-11-21T20:50:00;38.83;;;22.30;;